Terminal Aerodrome Forecast
Issued by NWS Bismarck, ND

Home | Current Version | Previous Version | Graphics & Text | Print | Product List | Glossary On
Versions: 1 2 3 4 5 6 7 8 9 10 11 12 13
318
FTUS43 KBIS 012333
TAFBIS
TAF
KBIS 012333Z 0200/0224 VRB04KT P6SM SKC
     FM021300 VRB03KT P6SM VCSH BKN110
     FM022000 03004KT P6SM SCT080=

USA.gov is the U.S. government's official web portal to all federal, state and local government web resources and services.